Time;durP1;ratioP1;P1;durP2;ratioP2;P2;SDS_P1;SDS_P2;PMS_P1;PMS_P2;Temp;Humidity;BMP_temperature;BMP_pressure;BME280_temperature;BME280_humidity;BME280_pressure;Samples;Min_cycle;Max_cycle;Signal;HPM_P1;HPM_P2
2021/04/19 00:01:30;;;;;;;23.50;11.45;;;;;;;22.89;35.32;157155.81;1755362;81;21213;-72
2021/04/19 00:04:02;;;;;;;21.95;10.72;;;;;;;22.92;35.23;157163.77;1760388;81;21972;-71
2021/04/19 00:06:36;;;;;;;19.12;9.38;;;;;;;22.83;35.31;157141.23;1747327;81;21331;-71
2021/04/19 00:09:09;;;;;;;16.50;9.35;;;;;;;22.84;35.43;157143.89;1751336;81;21295;-74
2021/04/19 00:11:42;;;;;;;12.18;6.70;;;;;;;22.75;35.58;157117.41;1771421;81;21333;-70
2021/04/19 00:14:16;;;;;;;13.98;7.05;;;;;;;22.72;35.82;157110.80;1756001;81;21212;-70
2021/04/19 00:16:48;;;;;;;12.15;6.55;;;;;;;22.95;35.45;157173.03;1753215;81;21358;-71
2021/04/19 00:19:21;;;;;;;11.33;6.17;;;;;;;22.84;35.43;157142.59;1741485;82;21330;-70
2021/04/19 00:21:55;;;;;;;9.60;6.40;;;;;;;22.81;35.45;157134.63;1763187;81;21431;-71
2021/04/19 00:24:28;;;;;;;10.63;6.33;;;;;;;22.72;35.47;157109.44;1753177;81;21356;-74
2021/04/19 00:27:01;;;;;;;9.50;5.78;;;;;;;22.55;35.67;157064.44;1746433;81;21366;-71
2021/04/19 00:29:33;;;;;;;12.60;6.78;;;;;;;22.60;35.61;157079.00;1789409;78;21274;-70
2021/04/19 00:32:08;;;;;;;15.65;7.15;;;;;;;22.48;35.68;157047.22;1788038;80;22450;-71
2021/04/19 00:34:41;;;;;;;12.10;6.75;;;;;;;22.56;35.75;157067.09;1747188;81;21712;-70
2021/04/19 00:37:13;;;;;;;11.03;6.62;;;;;;;22.52;35.88;157057.77;1767405;81;21870;-69
2021/04/19 00:39:46;;;;;;;10.85;6.05;;;;;;;22.60;35.77;157079.00;1771530;81;21355;-76
2021/04/19 00:42:19;;;;;;;12.00;6.87;;;;;;;22.58;35.78;157072.34;1785182;79;21269;-71
2021/04/19 00:44:51;;;;;;;13.38;6.60;;;;;;;22.59;35.70;157075.00;1810742;79;21162;-71
2021/04/19 00:47:24;;;;;;;11.38;6.72;;;;;;;22.69;35.50;157101.47;1780071;79;21864;-70
2021/04/19 00:49:57;;;;;;;9.33;6.22;;;;;;;22.70;35.51;157105.48;1767675;81;21202;-72
2021/04/19 00:52:29;;;;;;;8.10;5.33;;;;;;;22.72;35.51;157110.80;1759943;80;21225;-71
2021/04/19 00:55:02;;;;;;;8.45;5.40;;;;;;;22.78;35.50;157128.02;1777907;80;21367;-71
2021/04/19 00:57:36;;;;;;;9.25;5.62;;;;;;;22.86;35.47;157149.19;1778378;80;21347;-70
2021/04/19 01:00:13;;;;;;;8.15;5.67;;;;;;;22.84;35.35;157143.89;1778292;80;21760;-73
2021/04/19 01:02:46;;;;;;;10.20;6.08;;;;;;;22.74;35.30;157114.75;1778372;80;21240;-72
2021/04/19 01:05:31;;;;;;;11.60;6.33;;;;;;;22.63;35.43;157085.61;1757818;80;21351;-74
2021/04/19 01:08:04;;;;;;;8.08;5.55;;;;;;;22.55;35.42;157065.73;1744478;82;21183;-72
2021/04/19 01:10:38;;;;;;;9.13;5.62;;;;;;;22.54;35.38;157063.08;1768375;81;21373;-70
2021/04/19 01:13:11;;;;;;;8.53;5.60;;;;;;;22.50;35.36;157051.16;1768537;81;21378;-73
2021/04/19 01:15:44;;;;;;;8.28;5.25;;;;;;;22.42;35.55;157030.00;1779821;80;21371;-71
2021/04/19 01:22:10;;;;;;;6.15;4.53;;;;;;;22.46;35.56;157040.55;1766707;80;21224;-72
2021/04/19 01:24:43;;;;;;;8.50;5.65;;;;;;;22.40;35.41;157024.69;1771024;81;21417;-72
2021/04/19 01:27:16;;;;;;;8.58;5.15;;;;;;;22.36;35.50;157014.06;1785317;80;21332;-70
2021/04/19 01:29:49;;;;;;;8.55;5.47;;;;;;;22.34;35.61;157008.77;1795190;79;21202;-71
2021/04/19 01:32:21;;;;;;;8.45;5.08;;;;;;;22.31;35.60;157000.81;1809248;79;21221;-70
2021/04/19 01:34:55;;;;;;;6.28;4.47;;;;;;;22.26;35.55;156987.55;1814778;79;21188;-70
2021/04/19 01:37:29;;;;;;;7.55;4.75;;;;;;;22.32;35.49;157003.52;1805741;79;21807;-71
2021/04/19 01:40:04;;;;;;;7.25;4.85;;;;;;;22.29;35.47;156996.80;1814908;79;21328;-71
2021/04/19 01:42:36;;;;;;;8.75;5.30;;;;;;;22.20;35.51;156972.98;1814689;79;21616;-71
2021/04/19 01:45:11;;;;;;;9.45;5.90;;;;;;;22.12;35.54;156950.45;1814771;79;21178;-71
2021/04/19 01:47:45;;;;;;;8.33;5.78;;;;;;;22.16;35.52;156961.06;1814612;79;21670;-71
2021/04/19 01:50:21;;;;;;;9.78;5.95;;;;;;;22.06;35.56;156934.59;1814724;79;21332;-73
2021/04/19 01:52:57;;;;;;;9.45;6.78;;;;;;;21.99;35.71;156917.37;1814460;78;21736;-73
2021/04/19 01:55:32;;;;;;;11.05;7.00;;;;;;;22.01;35.70;156922.69;1809489;79;21288;-70
2021/04/19 01:58:11;;;;;;;12.45;7.05;;;;;;;22.01;35.76;156921.33;1771060;81;21320;-85
2021/04/19 02:00:47;;;;;;;10.00;6.03;;;;;;;22.01;35.69;156922.69;1767053;81;21832;-70
2021/04/19 02:04:00;;;;;;;8.43;5.62;;;;;;;22.00;35.60;156918.69;1767395;81;21344;-71
2021/04/19 02:06:43;;;;;;;13.80;7.83;;;;;;;21.94;35.64;156902.81;1786297;79;21187;-70
2021/04/19 02:09:23;;;;;;;10.98;5.92;;;;;;;21.96;35.74;156908.13;1799122;80;21299;-70
2021/04/19 02:12:11;;;;;;;11.55;7.12;;;;;;;21.99;35.75;156916.03;1771950;80;21345;-70
2021/04/19 02:15:07;;;;;;;13.13;6.70;;;;;;;22.00;35.68;156918.69;1771522;81;21166;-71
2021/04/19 02:17:44;;;;;;;11.48;6.80;;;;;;;21.98;35.74;156913.42;1776652;79;21360;-75
2021/04/19 02:20:33;;;;;;;11.73;7.10;;;;;;;21.97;35.75;156912.06;1798797;80;21736;-70
2021/04/19 02:23:15;;;;;;;11.85;6.70;;;;;;;21.94;35.88;156902.81;1798842;80;21352;-71
2021/04/19 02:25:48;;;;;;;9.78;5.90;;;;;;;21.96;35.86;156908.13;1785393;80;21736;-70
2021/04/19 02:28:32;;;;;;;9.18;6.60;;;;;;;21.92;35.68;156897.52;1799256;80;21831;-72
2021/04/19 02:31:10;;;;;;;9.75;6.47;;;;;;;21.89;35.63;156889.56;1798212;79;21281;-71
2021/04/19 02:33:45;;;;;;;10.68;7.22;;;;;;;21.89;35.57;156889.56;1745415;81;21847;-75
2021/04/19 02:36:18;;;;;;;10.72;6.42;;;;;;;21.88;35.48;156888.25;1723651;82;21209;-71
2021/04/19 02:38:53;;;;;;;11.25;6.08;;;;;;;21.88;35.39;156886.91;1738915;82;21750;-72
2021/04/19 02:41:27;;;;;;;9.80;6.65;;;;;;;21.82;35.42;156869.69;1709753;82;21804;-71
2021/04/19 02:44:00;;;;;;;9.75;6.00;;;;;;;21.86;35.31;156881.66;1703011;84;21250;-71
2021/04/19 02:46:34;;;;;;;10.15;6.17;;;;;;;21.86;35.36;156882.95;1718057;82;21230;-72
2021/04/19 02:49:07;;;;;;;9.58;5.55;;;;;;;21.83;35.45;156873.69;1738324;82;21204;-71
2021/04/19 02:51:42;;;;;;;8.55;5.72;;;;;;;21.82;35.45;156869.69;1760658;81;21192;-71
2021/04/19 02:54:15;;;;;;;8.08;5.37;;;;;;;21.85;35.47;156879.00;1761762;80;21323;-74
2021/04/19 02:56:48;;;;;;;8.13;5.53;;;;;;;21.81;35.56;156867.09;1757192;81;21193;-71
2021/04/19 02:59:23;;;;;;;10.15;6.67;;;;;;;21.83;35.58;156872.34;1741204;82;21745;-71
2021/04/19 03:02:08;;;;;;;10.85;6.00;;;;;;;21.87;35.38;156884.31;1730421;82;21199;-72
2021/04/19 03:04:41;;;;;;;11.12;5.72;;;;;;;21.88;35.33;156886.91;1737519;82;21186;-72
2021/04/19 03:07:15;;;;;;;9.33;6.12;;;;;;;21.87;35.31;156885.59;1725304;82;21213;-71
2021/04/19 03:09:53;;;;;;;11.45;5.45;;;;;;;21.84;35.24;156877.66;1749106;82;21242;-71
2021/04/19 03:12:29;;;;;;;9.00;5.58;;;;;;;21.53;35.63;156792.91;1782819;79;21363;-72
2021/04/19 03:15:06;;;;;;;10.15;6.65;;;;;;;21.58;35.54;156807.50;1779351;80;21302;-71
2021/04/19 03:17:39;;;;;;;9.28;5.55;;;;;;;21.70;35.46;156839.28;1776497;80;21173;-72
2021/04/19 03:20:23;;;;;;;9.38;6.28;;;;;;;21.77;35.39;156857.78;1773486;81;21283;-73
2021/04/19 03:23:03;;;;;;;11.40;5.90;;;;;;;21.83;35.47;156872.34;1770890;80;21218;-74
2021/04/19 03:25:38;;;;;;;10.72;6.75;;;;;;;21.84;35.66;156876.34;1779354;80;21206;-72
2021/04/19 03:28:11;;;;;;;9.70;5.97;;;;;;;21.90;35.66;156892.22;1780102;80;21194;-71
2021/04/19 03:30:43;;;;;;;9.63;5.62;;;;;;;21.96;35.52;156908.13;1774780;79;21206;-72
2021/04/19 03:33:17;;;;;;;10.60;6.42;;;;;;;21.90;35.61;156893.56;1775388;80;21381;-74
2021/04/19 03:35:52;;;;;;;10.68;6.00;;;;;;;21.92;35.61;156898.86;1778596;80;21337;-72
2021/04/19 03:38:26;;;;;;;9.08;6.33;;;;;;;21.83;35.81;156872.34;1755428;80;21247;-72
2021/04/19 03:40:58;;;;;;;11.28;6.55;;;;;;;21.81;36.00;156868.39;1779068;80;21237;-68
2021/04/19 03:43:32;;;;;;;10.28;6.28;;;;;;;21.83;36.23;156873.69;1778536;80;21321;-67
2021/04/19 03:46:09;;;;;;;12.33;7.37;;;;;;;21.78;36.50;156860.44;1777294;80;21330;-72
2021/04/19 03:48:42;;;;;;;9.40;6.15;;;;;;;21.96;36.41;156909.42;1778231;80;21200;-68
2021/04/19 03:51:18;;;;;;;13.40;7.75;;;;;;;22.03;36.47;156927.98;1780539;79;21407;-68
2021/04/19 03:53:53;;;;;;;16.23;9.20;;;;;;;22.09;36.56;156942.55;1779991;80;21174;-73
2021/04/19 03:56:27;;;;;;;17.23;8.95;;;;;;;22.27;36.47;156991.55;1796381;79;21389;-72
2021/04/19 03:59:05;;;;;;;15.65;8.73;;;;;;;22.42;36.39;157031.28;1798492;79;21279;-72
2021/04/19 04:01:43;;;;;;;14.35;7.45;;;;;;;22.37;36.61;157016.72;1811628;79;21847;-72
2021/04/19 04:04:16;;;;;;;10.50;7.03;;;;;;;22.42;36.72;157030.00;1799303;79;22519;-71
2021/04/19 04:06:50;;;;;;;10.30;6.60;;;;;;;22.61;36.66;157080.30;1809169;79;21333;-74
2021/04/19 04:09:24;;;;;;;10.38;6.92;;;;;;;22.82;36.49;157138.58;1805409;79;21356;-69
2021/04/19 04:11:57;;;;;;;10.05;6.75;;;;;;;22.97;36.38;157177.05;1809384;79;22094;-72
2021/04/19 04:14:31;;;;;;;13.13;7.25;;;;;;;23.09;36.23;157210.20;1801847;78;21218;-72
2021/04/19 04:17:04;;;;;;;11.28;7.65;;;;;;;23.16;36.25;157228.73;1800425;79;21358;-71
2021/04/19 04:19:52;;;;;;;14.65;8.93;;;;;;;23.28;36.14;157260.53;1744721;79;21296;-70
2021/04/19 04:22:25;;;;;;;14.30;9.15;;;;;;;23.37;36.13;157283.08;1813494;79;21363;-69
2021/04/19 04:24:58;;;;;;;13.83;8.63;;;;;;;23.43;36.12;157300.31;1812176;79;21182;-71
2021/04/19 04:27:31;;;;;;;12.65;8.05;;;;;;;23.21;36.52;157242.00;1812822;79;21173;-72
2021/04/19 04:30:04;;;;;;;14.23;8.15;;;;;;;23.69;36.09;157370.56;1804074;79;21217;-72
2021/04/19 04:32:41;;;;;;;14.93;8.68;;;;;;;23.88;35.91;157419.67;1808900;79;21447;-72
2021/04/19 04:35:25;;;;;;;14.28;9.18;;;;;;;24.00;35.88;157451.50;1789932;79;21357;-72
2021/04/19 04:37:59;;;;;;;14.75;9.38;;;;;;;24.09;35.87;157475.36;1793245;79;21310;-71
2021/04/19 04:40:34;;;;;;;13.68;9.40;;;;;;;24.15;35.92;157491.30;1810934;79;21289;-71
2021/04/19 04:43:20;;;;;;;13.70;9.03;;;;;;;24.26;35.89;157521.78;1792073;79;21198;-72
2021/04/19 04:45:56;;;;;;;15.95;9.48;;;;;;;24.31;35.81;157535.06;1799620;79;21347;-72
2021/04/19 04:49:02;;;;;;;16.30;10.08;;;;;;;24.41;35.77;157560.28;1795321;79;21784;-71
2021/04/19 04:51:35;;;;;;;16.57;10.28;;;;;;;24.45;35.72;157572.27;1790787;79;21850;-70
2021/04/19 04:54:16;;;;;;;15.90;10.08;;;;;;;24.46;35.75;157573.56;1813718;79;21206;-71
2021/04/19 04:56:53;;;;;;;17.17;11.00;;;;;;;24.45;35.88;157572.27;1806391;79;21362;-71
2021/04/19 04:59:28;;;;;;;17.40;11.35;;;;;;;24.56;35.87;157601.44;1798489;80;21297;-71
2021/04/19 05:02:00;;;;;;;18.02;11.35;;;;;;;24.70;35.77;157639.91;1796946;80;22656;-71
2021/04/19 05:04:33;;;;;;;19.70;11.57;;;;;;;24.77;35.81;157657.16;1789188;78;21822;-69
2021/04/19 05:07:07;;;;;;;19.98;11.68;;;;;;;24.82;35.80;157670.45;1774530;79;21317;-72
2021/04/19 05:09:40;;;;;;;20.17;11.38;;;;;;;24.88;35.81;157687.66;1801170;78;21321;-71
2021/04/19 05:12:12;;;;;;;17.23;10.90;;;;;;;24.91;35.93;157694.33;1783774;79;21163;-72
2021/04/19 05:15:01;;;;;;;19.67;11.25;;;;;;;24.99;35.88;157715.55;1789456;79;21448;-71
2021/04/19 05:17:34;;;;;;;16.52;10.70;;;;;;;25.07;35.90;157738.11;1789461;79;21383;-71
2021/04/19 05:20:08;;;;;;;19.37;10.72;;;;;;;25.19;35.87;157770.03;1783261;78;21385;-73
2021/04/19 05:22:42;;;;;;;17.65;9.70;;;;;;;25.27;36.00;157791.25;1778649;79;21970;-69
2021/04/19 05:25:15;;;;;;;15.45;9.13;;;;;;;25.42;35.90;157831.08;1781100;79;21214;-75
2021/04/19 05:27:48;;;;;;;14.90;9.30;;;;;;;25.55;35.93;157865.61;1785358;79;21285;-75
2021/04/19 05:30:21;;;;;;;15.28;9.40;;;;;;;25.61;35.89;157882.88;1779737;79;21801;-73
2021/04/19 05:32:54;;;;;;;13.95;9.28;;;;;;;25.69;35.96;157904.09;1785558;79;21147;-71
2021/04/19 05:35:28;;;;;;;16.35;9.00;;;;;;;25.86;35.98;157947.97;1790742;79;21403;-71
2021/04/19 05:38:01;;;;;;;17.50;10.48;;;;;;;26.01;35.88;157989.13;1794445;79;21333;-71
2021/04/19 05:40:35;;;;;;;15.25;9.33;;;;;;;26.10;35.93;158011.72;1800071;79;21285;-72
2021/04/19 05:43:08;;;;;;;16.02;9.90;;;;;;;26.25;35.95;158051.59;1798461;80;21357;-70
2021/04/19 05:45:42;;;;;;;15.85;9.53;;;;;;;26.31;35.92;158068.86;1800911;79;21168;-71
2021/04/19 05:48:14;;;;;;;14.58;9.63;;;;;;;26.41;35.89;158094.13;1775237;79;22124;-71
2021/04/19 05:50:50;;;;;;;17.30;10.03;;;;;;;26.51;35.87;158122.05;1756593;78;21205;-72
2021/04/19 05:53:22;;;;;;;13.50;9.23;;;;;;;26.61;35.91;158148.61;1803662;78;21388;-74
2021/04/19 05:55:57;;;;;;;16.12;10.28;;;;;;;26.63;35.78;158155.25;1808873;78;22917;-71
2021/04/19 05:58:48;;;;;;;15.00;9.75;;;;;;;26.71;35.65;158176.53;1824824;77;21359;-73
2021/04/19 06:01:22;;;;;;;15.00;9.63;;;;;;;26.80;35.61;158199.09;1842378;77;21169;-72
2021/04/19 06:04:11;;;;;;;17.60;10.18;;;;;;;26.84;35.47;158211.09;1845241;77;21890;-69
2021/04/19 06:06:56;;;;;;;17.85;10.53;;;;;;;26.90;35.47;158227.02;1820929;77;22063;-69
2021/04/19 06:09:40;;;;;;;21.35;10.70;;;;;;;26.96;35.38;158243.00;1807276;79;21319;-68
2021/04/19 06:12:22;;;;;;;19.35;10.18;;;;;;;26.96;35.40;158241.64;1818860;77;21317;-71
2021/04/19 06:14:57;;;;;;;17.32;10.13;;;;;;;26.96;35.66;158243.00;1824023;77;21364;-73
2021/04/19 06:17:29;;;;;;;16.60;10.82;;;;;;;27.05;35.84;158266.95;1810273;79;21370;-69
2021/04/19 06:20:01;;;;;;;17.52;10.95;;;;;;;27.17;35.91;158297.50;1809906;79;21217;-68
2021/04/19 06:22:34;;;;;;;19.48;11.65;;;;;;;27.26;35.94;158322.78;1809672;79;21368;-68
2021/04/19 06:25:08;;;;;;;17.67;11.80;;;;;;;27.33;35.91;158340.06;1807885;79;21409;-69
2021/04/19 06:27:41;;;;;;;16.95;10.80;;;;;;;27.42;36.15;158363.98;1801507;77;21223;-69
2021/04/19 06:30:19;;;;;;;18.57;10.70;;;;;;;27.52;36.02;158393.23;1827757;77;21312;-69
2021/04/19 06:32:53;;;;;;;16.77;11.20;;;;;;;27.63;36.07;158421.19;1825390;77;21328;-72
2021/04/19 06:35:27;;;;;;;18.92;11.25;;;;;;;27.70;36.07;158439.83;1813692;77;21375;-73
2021/04/19 06:37:59;;;;;;;15.32;10.70;;;;;;;27.81;36.21;158470.45;1810152;77;21292;-75
2021/04/19 06:40:31;;;;;;;18.55;11.03;;;;;;;28.04;36.13;158530.28;1817640;77;21292;-73
2021/04/19 06:43:04;;;;;;;15.80;10.30;;;;;;;28.23;36.03;158580.91;1811257;79;21265;-73
2021/04/19 06:45:38;;;;;;;16.87;10.65;;;;;;;28.31;35.78;158602.19;1809312;79;21404;-74
2021/04/19 06:48:12;;;;;;;15.28;9.93;;;;;;;28.43;35.89;158636.78;1809409;79;21883;-73
2021/04/19 06:50:45;;;;;;;16.12;10.30;;;;;;;28.59;35.71;158678.03;1785908;79;21305;-73
2021/04/19 06:53:17;;;;;;;13.30;9.10;;;;;;;28.60;35.40;158680.69;1781679;79;21273;-76
2021/04/19 06:55:50;;;;;;;16.25;9.83;;;;;;;28.67;35.01;158700.66;1809132;79;21353;-73
2021/04/19 06:58:22;;;;;;;19.52;11.85;;;;;;;28.70;35.11;158707.31;1806810;79;21354;-70
2021/04/19 07:00:57;;;;;;;16.60;10.20;;;;;;;28.84;35.25;158745.94;1808482;79;21886;-74
2021/04/19 07:03:29;;;;;;;14.58;9.50;;;;;;;28.93;35.10;158769.94;1809408;79;21428;-74
2021/04/19 07:06:02;;;;;;;17.50;8.80;;;;;;;29.12;34.77;158819.16;1810623;79;21305;-73
2021/04/19 07:08:40;;;;;;;10.70;6.37;;;;;;;29.27;34.62;158859.11;1809865;79;21371;-76
2021/04/19 07:11:14;;;;;;;12.18;7.12;;;;;;;29.40;34.16;158895.09;1809492;79;21406;-75
2021/04/19 07:13:46;;;;;;;12.37;6.58;;;;;;;29.50;34.22;158923.08;1808923;79;21411;-79
2021/04/19 07:16:19;;;;;;;6.10;5.08;;;;;;;29.52;33.76;158927.06;1810670;79;21388;-79
2021/04/19 07:18:54;;;;;;;7.50;4.35;;;;;;;29.74;33.16;158985.70;1809263;79;21353;-73
2021/04/19 07:21:26;;;;;;;5.28;4.40;;;;;;;29.65;33.43;158961.69;1810675;79;21261;-68
2021/04/19 07:23:59;;;;;;;6.95;4.30;;;;;;;29.76;33.32;158990.98;1809040;79;21902;-75
2021/04/19 07:26:33;;;;;;;4.72;3.55;;;;;;;30.05;33.24;159069.63;1787448;79;21676;-68
2021/04/19 07:29:06;;;;;;;6.05;4.20;;;;;;;30.35;32.33;159149.61;1809486;79;21312;-71
2021/04/19 07:31:52;;;;;;;5.35;3.45;;;;;;;30.55;31.97;159202.95;1806907;79;22235;-73
2021/04/19 07:34:28;;;;;;;3.90;3.27;;;;;;;30.53;32.28;159198.97;1809023;79;21363;-77
2021/04/19 07:37:08;;;;;;;3.80;3.25;;;;;;;30.67;32.00;159236.25;1809387;79;21411;-78
2021/04/19 07:39:42;;;;;;;4.30;3.15;;;;;;;30.63;32.30;159224.25;1807860;79;21344;-81
2021/04/19 07:42:15;;;;;;;4.90;3.20;;;;;;;31.06;31.90;159338.98;1808210;79;21372;-76
2021/04/19 07:44:50;;;;;;;5.85;3.10;;;;;;;31.24;31.62;159386.97;1793916;77;21653;-75
2021/04/19 07:47:38;;;;;;;4.95;3.30;;;;;;;31.34;31.32;159416.30;1816736;77;21348;-79
2021/04/19 07:50:22;;;;;;;4.30;3.30;;;;;;;31.15;31.18;159362.97;1808500;79;21162;-77
2021/04/19 07:53:08;;;;;;;3.65;2.72;;;;;;;31.08;31.71;159344.28;1809133;79;21722;-82
2021/04/19 07:55:52;;;;;;;4.30;2.40;;;;;;;31.35;31.40;159418.97;1806966;79;21371;-78
2021/04/19 07:58:23;;;;;;;6.62;4.10;;;;;;;31.59;30.60;159481.72;1807865;79;21863;-74
2021/04/19 08:01:05;;;;;;;4.27;2.93;;;;;;;31.66;30.17;159501.69;1793739;79;21371;-75
2021/04/19 08:03:41;;;;;;;4.15;2.80;;;;;;;31.56;30.08;159475.02;1768871;79;21379;-74
2021/04/19 08:06:21;;;;;;;4.20;2.90;;;;;;;31.84;29.67;159548.38;1740302;81;21863;-74
2021/04/19 08:08:54;;;;;;;12.18;2.90;;;;;;;32.02;30.07;159597.73;1784468;78;21367;-74
2021/04/19 08:11:26;;;;;;;4.37;3.08;;;;;;;32.37;30.04;159692.56;1715027;81;21395;-74
2021/04/19 08:14:04;;;;;;;5.47;3.30;;;;;;;32.56;29.17;159743.25;1775759;79;21824;-75
2021/04/19 08:16:37;;;;;;;2.95;2.40;;;;;;;32.73;29.14;159788.72;1763743;80;21181;-73
2021/04/19 08:19:10;;;;;;;2.75;2.08;;;;;;;32.77;28.64;159798.05;1775570;79;21312;-73
2021/04/19 08:21:42;;;;;;;3.37;2.05;;;;;;;32.76;28.77;159795.37;1782041;79;21352;-78
2021/04/19 08:24:16;;;;;;;3.87;2.47;;;;;;;32.77;28.48;159799.36;1791211;79;21859;-77
2021/04/19 08:26:58;;;;;;;4.70;2.60;;;;;;;32.71;28.75;159783.36;1763182;79;21194;-82
2021/04/19 08:29:39;;;;;;;3.35;2.42;;;;;;;32.91;28.82;159836.75;1781535;80;21182;-83
2021/04/19 08:32:11;;;;;;;6.70;3.25;;;;;;;33.21;28.84;159918.25;1792698;80;21814;-84
2021/04/19 08:34:51;;;;;;;4.67;2.92;;;;;;;33.40;29.40;159968.97;1773521;79;21300;-86
2021/04/19 08:37:23;;;;;;;8.75;3.10;;;;;;;33.60;28.55;160021.11;1775719;81;22451;-85
2021/04/19 08:39:58;;;;;;;2.83;2.40;;;;;;;33.66;28.53;160037.17;1775348;80;21245;-84
2021/04/19 08:42:31;;;;;;;4.37;2.37;;;;;;;33.74;28.65;160059.84;1768738;81;21899;-87
2021/04/19 08:45:04;;;;;;;5.40;3.27;;;;;;;33.89;28.16;160099.92;1790134;79;21331;-88
2021/04/19 08:47:37;;;;;;;2.85;2.50;;;;;;;33.95;28.15;160115.98;1771694;80;21395;-82
2021/04/19 08:50:16;;;;;;;3.45;2.55;;;;;;;34.14;28.27;160166.80;1758633;81;21312;-71
2021/04/19 08:52:45;;;;;;;3.65;2.50;;;;;;;34.56;27.74;160280.39;1774641;79;21223;-75
2021/04/19 08:55:17;;;;;;;3.52;2.47;;;;;;;35.67;27.50;160578.72;1788035;80;21304;-73
2021/04/19 08:57:50;;;;;;;3.80;2.30;;;;;;;37.17;26.37;160983.00;1768342;80;21296;-70
2021/04/19 09:00:26;;;;;;;6.58;2.52;;;;;;;37.81;24.44;161154.50;1772753;80;21333;-71
2021/04/19 09:03:02;;;;;;;3.20;2.08;;;;;;;37.76;24.18;161139.72;1791913;78;21715;-73
2021/04/19 09:05:35;;;;;;;2.77;2.05;;;;;;;37.74;24.43;161135.72;1818844;78;21866;-71
2021/04/19 09:08:22;;;;;;;4.10;2.30;;;;;;;37.83;24.53;161158.56;1826002;78;21315;-71
2021/04/19 09:11:06;;;;;;;2.47;1.60;;;;;;;37.89;24.52;161174.59;1826185;78;21379;-72
2021/04/19 09:13:42;;;;;;;2.50;2.30;;;;;;;37.86;24.32;161166.55;1825021;78;21301;-71
2021/04/19 09:16:23;;;;;;;2.52;1.87;;;;;;;37.95;24.29;161192.02;1823222;78;21359;-71
2021/04/19 09:18:58;;;;;;;3.72;2.20;;;;;;;38.01;23.98;161208.13;1823837;78;21253;-72
2021/04/19 09:21:39;;;;;;;2.40;1.72;;;;;;;37.78;24.19;161146.45;1823256;78;21339;-71
2021/04/19 09:24:17;;;;;;;2.22;1.82;;;;;;;37.51;24.14;161072.75;1823684;78;21300;-71
2021/04/19 09:27:01;;;;;;;2.30;2.10;;;;;;;37.26;24.10;161007.09;1823345;78;21394;-71
2021/04/19 09:29:45;;;;;;;4.70;2.25;;;;;;;36.93;24.63;160916.06;1825138;78;21282;-71
2021/04/19 09:32:24;;;;;;;3.20;2.10;;;;;;;36.80;24.52;160881.20;1825221;78;21384;-72
2021/04/19 09:34:58;;;;;;;3.87;2.12;;;;;;;36.91;24.50;160910.70;1825401;78;21363;-73
2021/04/19 09:37:41;;;;;;;2.65;1.98;;;;;;;37.50;24.53;161071.44;1823351;78;21807;-72
2021/04/19 09:40:23;;;;;;;2.90;2.50;;;;;;;38.63;24.15;161374.28;1825977;78;21347;-73
2021/04/19 09:43:06;;;;;;;3.02;2.12;;;;;;;40.17;23.42;161790.17;1793886;78;21859;-72
2021/04/19 09:45:53;;;;;;;2.80;1.90;;;;;;;40.80;22.73;161960.67;1825861;78;21786;-73
2021/04/19 09:48:33;;;;;;;2.60;2.22;;;;;;;40.56;22.55;161896.20;1822607;78;21165;-71
2021/04/19 09:51:22;;;;;;;1.80;1.60;;;;;;;40.10;22.59;161772.72;1825958;78;21789;-72
2021/04/19 09:54:05;;;;;;;2.80;1.62;;;;;;;41.36;21.95;162111.05;1825099;78;21243;-71
2021/04/19 09:56:49;;;;;;;3.62;1.95;;;;;;;44.67;20.91;163005.16;1825813;78;21180;-69
2021/04/19 09:59:31;;;;;;;2.40;2.08;;;;;;;47.35;18.81;163731.08;1825689;78;21193;-72
2021/04/19 10:02:03;;;;;;;4.40;3.17;;;;;;;45.66;18.94;163274.39;1822570;78;21220;-70
2021/04/19 10:04:36;;;;;;;3.55;2.98;;;;;;;43.75;19.55;162756.25;1798808;80;21837;-69
2021/04/19 10:07:10;;;;;;;2.80;2.35;;;;;;;42.03;20.16;162293.75;1798757;80;21324;-71
2021/04/19 10:09:44;;;;;;;2.35;2.10;;;;;;;41.05;20.54;162027.78;1746545;81;21229;-70
2021/04/19 10:12:17;;;;;;;2.45;1.90;;;;;;;40.17;21.36;161791.48;1767238;81;21384;-71
2021/04/19 10:14:50;;;;;;;2.37;1.95;;;;;;;40.34;21.44;161835.81;1775520;79;21780;-69
2021/04/19 10:17:26;;;;;;;2.62;1.80;;;;;;;42.17;20.95;162331.38;1804102;79;21876;-73
2021/04/19 10:19:56;;;;;;;2.87;2.08;;;;;;;44.91;19.78;163071.05;1796050;80;21198;-72
2021/04/19 10:22:29;;;;;;;2.25;1.77;;;;;;;45.46;18.83;163219.20;1795995;80;22442;-71
2021/04/19 10:25:01;;;;;;;2.20;2.00;;;;;;;45.46;18.83;163219.20;1797555;79;21764;-71
2021/04/19 10:27:35;;;;;;;4.22;2.65;;;;;;;44.91;18.66;163071.05;1804440;79;21170;-71
2021/04/19 10:30:19;;;;;;;2.83;2.17;;;;;;;43.30;19.38;162636.55;1804567;79;21332;-71
2021/04/19 10:32:51;;;;;;;4.33;2.90;;;;;;;41.51;20.14;162151.34;1804395;79;21332;-72
2021/04/19 10:35:39;;;;;;;4.95;2.08;;;;;;;40.46;21.24;161869.37;1800008;79;21302;-71
2021/04/19 10:38:13;;;;;;;2.30;2.10;;;;;;;40.01;21.45;161748.59;1795756;79;21284;-71
2021/04/19 10:40:45;;;;;;;2.30;1.95;;;;;;;39.28;21.85;161551.36;1804183;79;21693;-71
2021/04/19 10:43:18;;;;;;;3.33;2.17;;;;;;;39.37;21.71;161574.13;1804322;79;21760;-70
2021/04/19 10:45:50;;;;;;;2.95;2.27;;;;;;;39.11;21.78;161504.44;1803384;79;21725;-72
2021/04/19 10:48:32;;;;;;;2.77;2.27;;;;;;;38.77;21.83;161413.25;1801033;79;21304;-71
2021/04/19 10:51:22;;;;;;;3.15;2.75;;;;;;;38.18;22.32;161255.02;1798806;79;21142;-71
2021/04/19 10:53:55;;;;;;;3.58;2.40;;;;;;;37.65;22.93;161111.62;1798626;80;21388;-70
2021/04/19 10:56:28;;;;;;;3.00;2.37;;;;;;;37.08;23.31;160957.56;1799166;79;21348;-71
2021/04/19 10:59:03;;;;;;;2.58;2.20;;;;;;;36.57;23.69;160821.00;1800963;79;21379;-83
2021/04/19 11:01:40;;;;;;;5.08;2.30;;;;;;;36.17;24.03;160713.87;1811422;79;21307;-85
2021/04/19 11:04:12;;;;;;;3.65;1.98;;;;;;;35.79;24.23;160609.45;1810740;78;21862;-83
2021/04/19 11:06:47;;;;;;;3.92;2.17;;;;;;;35.42;24.51;160511.78;1809097;79;21661;-81
2021/04/19 11:09:26;;;;;;;2.58;2.37;;;;;;;35.11;24.67;160427.53;1812157;79;21288;-85
2021/04/19 11:11:54;;;;;;;3.42;1.85;;;;;;;34.94;24.88;160380.69;1809592;79;21243;-83
2021/04/19 11:14:36;;;;;;;3.08;2.22;;;;;;;34.73;24.90;160325.86;1810131;79;21146;-83
2021/04/19 11:17:09;;;;;;;2.70;1.98;;;;;;;34.51;25.20;160267.00;1790484;79;21315;-83
2021/04/19 11:19:48;;;;;;;3.37;2.37;;;;;;;34.34;25.16;160220.22;1807677;79;21717;-83
2021/04/19 11:22:35;;;;;;;2.62;2.20;;;;;;;34.22;25.37;160188.16;1811739;79;21816;-81
2021/04/19 11:25:30;;;;;;;2.35;2.02;;;;;;;34.20;25.50;160182.86;1772867;79;21375;-79
2021/04/19 11:28:20;;;;;;;3.33;2.40;;;;;;;34.23;25.48;160190.83;1763565;80;21201;-79
2021/04/19 11:30:53;;;;;;;5.10;2.02;;;;;;;34.14;25.58;160165.48;1771626;80;21329;-81
2021/04/19 11:33:29;;;;;;;4.50;2.27;;;;;;;34.20;25.41;160182.86;1769128;78;21781;-75
2021/04/19 11:36:06;;;;;;;2.35;1.85;;;;;;;34.25;25.46;160197.55;1807037;78;21371;-76
2021/04/19 11:38:41;;;;;;;3.37;2.33;;;;;;;34.44;25.32;160246.95;1798697;78;21875;-75
2021/04/19 11:41:14;;;;;;;2.80;2.10;;;;;;;34.58;25.13;160285.80;1827658;78;21297;-74
2021/04/19 11:43:53;;;;;;;3.60;2.30;;;;;;;34.66;25.28;160305.84;1807193;79;21300;-75
2021/04/19 11:46:28;;;;;;;3.40;2.00;;;;;;;34.86;25.42;160360.63;1785941;78;21407;-78
2021/04/19 11:49:01;;;;;;;4.00;2.12;;;;;;;34.51;24.86;160267.00;1826381;78;21296;-72
2021/04/19 11:51:34;;;;;;;2.47;2.10;;;;;;;34.80;24.52;160344.61;1823466;78;21309;-75
2021/04/19 11:54:06;;;;;;;2.05;1.80;;;;;;;35.07;24.71;160416.81;1808912;78;21317;-78
2021/04/19 11:56:39;;;;;;;3.33;2.20;;;;;;;35.60;24.30;160558.64;1779908;79;21317;-75
2021/04/19 11:59:11;;;;;;;2.17;1.90;;;;;;;36.12;23.72;160700.47;1805004;79;21350;-76
2021/04/19 12:01:44;;;;;;;2.40;1.95;;;;;;;36.38;23.30;160770.06;1805832;79;21639;-75
2021/04/19 12:04:16;;;;;;;2.80;2.40;;;;;;;36.39;23.25;160772.75;1807045;79;21363;-84